Time;durP1;ratioP1;P1;durP2;ratioP2;P2;SDS_P1;SDS_P2;PMS_P1;PMS_P2;Temp;Humidity;BMP_temperature;BMP_pressure;BME280_temperature;BME280_humidity;BME280_pressure;Samples;Min_cycle;Max_cycle;Signal;HPM_P1;HPM_P2
2022/09/09 00:00:46;;;;;;;5.07;2.10;;;;;;;-140.72;100.00;52565.38;5109392;27;20023;-67
2022/09/09 00:03:17;;;;;;;3.95;2.58;;;;;;;-140.72;100.00;52599.88;5114271;27;20031;-67
2022/09/09 00:05:48;;;;;;;3.63;2.05;;;;;;;-140.72;100.00;52622.19;5121100;27;20016;-66
2022/09/09 00:08:38;;;;;;;2.95;1.77;;;;;;;-140.72;100.00;52569.44;5117273;27;20023;-67
2022/09/09 00:11:05;;;;;;;2.70;1.60;;;;;;;-140.72;100.00;52561.31;5119173;27;20470;-67
2022/09/09 00:13:54;;;;;;;2.17;1.50;;;;;;;-140.72;100.00;52612.03;5120762;27;20019;-67
2022/09/09 00:16:25;;;;;;;4.28;2.05;;;;;;;-140.72;100.00;52603.94;5098348;27;20024;-67
2022/09/09 00:19:12;;;;;;;8.75;3.10;;;;;;;-140.72;100.00;52571.47;5128036;27;20061;-67
2022/09/09 00:21:45;;;;;;;3.03;2.22;;;;;;;-140.72;100.00;52624.22;5111997;27;20024;-67
2022/09/09 00:24:25;;;;;;;3.63;2.40;;;;;;;-140.72;100.00;52589.72;5110206;27;20099;-67
2022/09/09 00:26:57;;;;;;;4.75;2.00;;;;;;;-140.72;100.00;52626.25;5106961;28;20024;-67
2022/09/09 00:29:32;;;;;;;4.03;2.50;;;;;;;-140.72;100.00;52575.50;5112300;28;20369;-68
2022/09/09 00:32:12;;;;;;;5.25;2.90;;;;;;;-140.72;100.00;52612.03;5102566;27;20373;-67
2022/09/09 00:34:44;;;;;;;5.97;2.50;;;;;;;-140.72;100.00;52583.63;5119984;27;20503;-67
2022/09/09 00:37:09;;;;;;;5.22;2.90;;;;;;;-140.72;100.00;52626.25;5122407;27;20204;-67
2022/09/09 00:39:41;;;;;;;4.25;2.80;;;;;;;-140.72;100.00;52644.50;5107549;28;20510;-67
2022/09/09 00:42:09;;;;;;;7.90;3.10;;;;;;;-140.72;100.00;52603.94;5103519;28;20185;-67
2022/09/09 00:44:37;;;;;;;5.57;3.05;;;;;;;-140.72;100.00;52599.88;5131055;27;20019;-67
2022/09/09 00:47:34;;;;;;;5.40;2.83;;;;;;;-140.72;100.00;52624.22;5132645;27;20465;-67
2022/09/09 00:50:21;;;;;;;4.75;3.33;;;;;;;-140.72;100.00;52587.69;5091040;27;20040;-68
2022/09/09 00:53:19;;;;;;;4.43;2.95;;;;;;;-140.72;100.00;52614.06;5111311;28;20047;-67
2022/09/09 00:55:59;;;;;;;5.60;3.00;;;;;;;-140.72;100.00;52573.50;5087398;27;20047;-67
2022/09/09 00:58:27;;;;;;;4.43;2.92;;;;;;;-140.72;100.00;52597.84;5091235;28;20035;-68
2022/09/09 01:01:03;;;;;;;6.90;2.95;;;;;;;-140.72;100.00;52620.16;5111692;28;20028;-67
2022/09/09 01:03:40;;;;;;;4.95;3.13;;;;;;;-140.72;100.00;52638.41;5110610;28;20043;-67
2022/09/09 01:06:30;;;;;;;3.63;2.50;;;;;;;-140.72;100.00;52612.03;5101725;28;20020;-68
2022/09/09 01:09:33;;;;;;;3.60;2.58;;;;;;;-140.72;100.00;52626.25;5104742;28;20031;-68
2022/09/09 01:12:15;;;;;;;5.28;2.97;;;;;;;-140.72;100.00;52601.91;5104591;28;20059;-68
2022/09/09 01:15:03;;;;;;;4.25;2.78;;;;;;;-140.72;100.00;52575.50;5117725;27;20041;-68
2022/09/09 01:17:38;;;;;;;6.35;3.35;;;;;;;-140.72;100.00;52638.41;5119841;27;20019;-68
2022/09/09 01:20:06;;;;;;;5.82;3.00;;;;;;;-140.72;100.00;52616.09;5110858;28;20461;-68
2022/09/09 01:22:56;;;;;;;4.95;2.28;;;;;;;-140.72;100.00;52626.25;5111517;28;20028;-67
2022/09/09 01:26:04;;;;;;;5.50;3.13;;;;;;;-140.72;100.00;52573.50;5106807;27;20071;-68
2022/09/09 01:28:32;;;;;;;2.95;2.15;;;;;;;-140.72;100.00;52620.16;5112090;27;20023;-67
2022/09/09 01:30:58;;;;;;;5.40;2.40;;;;;;;-140.72;100.00;52610.00;5123388;27;20144;-68
2022/09/09 01:33:24;;;;;;;2.83;2.33;;;;;;;-140.72;100.00;52618.13;5096956;28;20404;-68
2022/09/09 01:35:58;;;;;;;2.80;1.90;;;;;;;-140.72;100.00;52593.78;5118376;27;20019;-67
2022/09/09 01:38:24;;;;;;;3.28;1.83;;;;;;;-140.72;100.00;52618.13;5103880;27;20027;-67
2022/09/09 01:40:52;;;;;;;8.13;2.03;;;;;;;-140.72;100.00;52612.03;5131582;27;20023;-68
2022/09/09 01:43:19;;;;;;;5.53;2.40;;;;;;;-140.72;100.00;52632.34;5123403;27;20024;-67
2022/09/09 01:45:48;;;;;;;2.90;1.77;;;;;;;-140.72;100.00;52591.75;5107685;28;20372;-67
2022/09/09 01:48:15;;;;;;;2.60;1.50;;;;;;;-140.72;100.00;52636.38;5109059;27;20501;-67
2022/09/09 01:50:40;;;;;;;2.58;1.67;;;;;;;-140.72;100.00;52565.38;5096849;28;20407;-67
2022/09/09 01:53:06;;;;;;;4.03;2.28;;;;;;;-140.72;100.00;52618.13;5119023;27;20030;-67
2022/09/09 01:55:38;;;;;;;3.28;1.92;;;;;;;-140.72;100.00;52630.31;5114308;27;20023;-67
2022/09/09 01:58:25;;;;;;;2.78;1.73;;;;;;;-140.72;100.00;52622.19;5095592;28;20020;-67
2022/09/09 02:01:05;;;;;;;2.90;1.70;;;;;;;-140.72;100.00;52614.06;5101695;28;20047;-67
2022/09/09 02:03:33;;;;;;;3.55;2.08;;;;;;;-140.72;100.00;52638.41;5097149;28;20042;-67
2022/09/09 02:06:19;;;;;;;3.75;2.03;;;;;;;-140.72;100.00;52610.00;5100319;28;20035;-66
2022/09/09 02:08:55;;;;;;;6.28;2.00;;;;;;;-140.72;100.00;52614.06;5109228;28;20038;-67
2022/09/09 02:11:26;;;;;;;4.70;2.72;;;;;;;-140.72;100.00;52638.41;5110359;28;20027;-67
2022/09/09 02:14:04;;;;;;;4.88;2.13;;;;;;;-140.72;100.00;52622.19;5100231;28;20065;-67
2022/09/09 02:16:48;;;;;;;3.45;1.88;;;;;;;-140.72;100.00;52620.16;5105394;27;20456;-67
2022/09/09 02:19:48;;;;;;;3.38;1.92;;;;;;;-140.72;100.00;52640.44;5109385;28;20361;-67
2022/09/09 02:22:17;;;;;;;6.47;2.28;;;;;;;-140.72;100.00;52614.06;5081604;28;20081;-65
2022/09/09 02:24:44;;;;;;;3.13;1.58;;;;;;;-140.72;100.00;52610.00;5109468;28;20111;-67
2022/09/09 02:27:11;;;;;;;3.80;2.50;;;;;;;-140.72;100.00;52618.13;5092805;28;20475;-67
2022/09/09 02:29:41;;;;;;;5.63;1.83;;;;;;;-140.72;100.00;52614.06;5089925;28;20411;-67
2022/09/09 02:32:11;;;;;;;4.57;2.58;;;;;;;-140.72;100.00;52610.00;5091433;28;20085;-66
2022/09/09 02:34:39;;;;;;;;;;;;;;;-140.72;100.00;52648.56;5096308;28;20016;-67
2022/09/09 02:37:07;;;;;;;5.28;2.30;;;;;;;-140.72;100.00;52670.88;5093661;28;19912;-67
2022/09/09 02:39:33;;;;;;;6.50;2.30;;;;;;;-140.72;100.00;52640.44;5106282;28;20008;-67
2022/09/09 02:41:59;;;;;;;3.38;2.08;;;;;;;-140.72;100.00;52614.06;5101628;28;20042;-67
2022/09/09 02:44:24;;;;;;;4.68;2.08;;;;;;;-140.72;100.00;52634.38;5096315;28;20436;-67
2022/09/09 02:47:14;;;;;;;3.58;1.85;;;;;;;-140.72;100.00;52607.97;5097240;28;20043;-67
2022/09/09 02:49:49;;;;;;;5.03;2.58;;;;;;;-140.72;100.00;52616.09;5093725;28;20089;-67
2022/09/09 02:52:18;;;;;;;2.92;1.90;;;;;;;-140.72;100.00;52607.97;5094579;28;20069;-67
2022/09/09 02:54:44;;;;;;;6.00;2.70;;;;;;;-140.72;100.00;52638.41;5096161;28;20486;-67
2022/09/09 02:57:19;;;;;;;3.38;2.05;;;;;;;-140.72;100.00;52614.06;5109369;28;20085;-67
2022/09/09 02:59:44;;;;;;;3.92;2.40;;;;;;;-140.72;100.00;52644.50;5115774;28;20125;-67
2022/09/09 03:02:11;;;;;;;2.50;1.77;;;;;;;-140.72;100.00;52618.13;5129757;28;20459;-67
2022/09/09 03:04:37;;;;;;;5.75;1.98;;;;;;;-140.72;100.00;52614.06;5108968;28;20441;-67
2022/09/09 03:07:03;;;;;;;2.97;1.90;;;;;;;-140.72;100.00;52618.13;5109261;28;20051;-68
2022/09/09 03:09:29;;;;;;;8.27;2.67;;;;;;;-140.72;100.00;52654.66;5090797;28;20015;-66
2022/09/09 03:11:55;;;;;;;5.72;2.45;;;;;;;-140.72;100.00;52622.19;5094868;28;20119;-67
2022/09/09 03:14:24;;;;;;;4.05;2.53;;;;;;;-140.72;100.00;52628.28;5110060;28;20016;-66
2022/09/09 03:16:50;;;;;;;3.90;2.37;;;;;;;-140.72;100.00;52646.53;5113159;28;20024;-67
2022/09/09 03:19:16;;;;;;;6.93;2.00;;;;;;;-140.72;100.00;52614.06;5122975;28;20035;-66
2022/09/09 03:21:41;;;;;;;5.40;2.00;;;;;;;-140.72;100.00;52654.66;5109807;28;20039;-67
2022/09/09 03:24:06;;;;;;;4.05;2.00;;;;;;;-140.72;100.00;52638.41;5096876;28;20028;-67
2022/09/09 03:26:33;;;;;;;7.72;1.92;;;;;;;-140.72;100.00;52662.78;5101325;28;20106;-67
2022/09/09 03:29:00;;;;;;;2.83;1.92;;;;;;;-140.72;100.00;52616.09;5130032;28;20019;-67
2022/09/09 03:31:26;;;;;;;5.85;1.88;;;;;;;-140.72;100.00;52618.13;5112093;28;20016;-68
2022/09/09 03:33:51;;;;;;;5.55;1.85;;;;;;;-140.72;100.00;52614.06;5120512;28;20502;-67
2022/09/09 03:36:17;;;;;;;2.58;1.52;;;;;;;-140.72;100.00;52652.63;5111805;28;20020;-67
2022/09/09 03:38:42;;;;;;;5.03;1.95;;;;;;;-140.72;100.00;52648.56;5108940;28;20024;-68
2022/09/09 03:41:08;;;;;;;5.72;1.50;;;;;;;-140.72;100.00;52642.47;5109246;28;20015;-66
2022/09/09 03:43:34;;;;;;;4.32;1.70;;;;;;;-140.72;100.00;52583.63;5095760;28;20039;-66
2022/09/09 03:45:59;;;;;;;5.85;1.02;;;;;;;-140.72;100.00;52630.31;5108595;28;20471;-67
2022/09/09 03:48:27;;;;;;;3.63;1.48;;;;;;;-140.72;100.00;52614.06;5109767;28;20469;-68
2022/09/09 03:50:54;;;;;;;2.00;1.35;;;;;;;-140.72;100.00;52601.91;5115817;28;20402;-67
2022/09/09 03:53:22;;;;;;;5.68;1.67;;;;;;;-140.72;100.00;52646.53;5116312;28;20023;-67
2022/09/09 03:55:52;;;;;;;5.60;1.75;;;;;;;-140.72;100.00;52644.50;5089923;28;20042;-67
2022/09/09 03:58:18;;;;;;;2.45;1.23;;;;;;;-140.72;100.00;52642.47;5104243;28;20055;-67
2022/09/09 04:00:52;;;;;;;4.75;1.60;;;;;;;-140.72;100.00;52616.09;5110356;27;20049;-67
2022/09/09 04:03:18;;;;;;;4.40;1.35;;;;;;;-140.72;100.00;52630.31;5104970;27;20035;-67
2022/09/09 04:05:43;;;;;;;2.47;1.63;;;;;;;-140.72;100.00;52652.63;5105835;28;20409;-68
2022/09/09 04:08:09;;;;;;;2.20;1.00;;;;;;;-140.72;100.00;52634.38;5106366;28;20019;-67
2022/09/09 04:10:37;;;;;;;1.58;1.17;;;;;;;-140.72;100.00;52638.41;5100750;28;20016;-67
2022/09/09 04:13:04;;;;;;;5.05;1.77;;;;;;;-140.72;100.00;52642.47;5103009;28;20032;-68
2022/09/09 04:15:30;;;;;;;5.47;1.92;;;;;;;-140.72;100.00;52614.06;5098106;28;20012;-67
2022/09/09 04:17:56;;;;;;;1.48;1.08;;;;;;;-140.72;100.00;52658.72;5099639;28;20020;-67
2022/09/09 04:20:22;;;;;;;3.35;1.00;;;;;;;-140.72;100.00;52644.50;5093974;28;20023;-67
2022/09/09 04:22:47;;;;;;;4.43;1.40;;;;;;;-140.72;100.00;52622.19;5097107;27;20026;-67
2022/09/09 04:25:13;;;;;;;3.85;1.77;;;;;;;-140.72;100.00;52640.44;5098954;28;20095;-68
2022/09/09 04:27:38;;;;;;;2.13;0.93;;;;;;;-140.72;100.00;52648.56;5105083;27;20365;-68
2022/09/09 04:30:04;;;;;;;2.30;1.20;;;;;;;-140.72;100.00;52664.81;5106799;28;20023;-68
2022/09/09 04:32:29;;;;;;;2.88;1.65;;;;;;;-140.72;100.00;52646.53;5105973;28;20025;-68
2022/09/09 04:34:55;;;;;;;2.60;1.73;;;;;;;-140.72;100.00;52622.19;5102833;28;20454;-68
2022/09/09 04:37:20;;;;;;;3.03;1.13;;;;;;;-140.72;100.00;52620.16;5103644;27;20027;-69
2022/09/09 04:39:45;;;;;;;3.97;1.40;;;;;;;-140.72;100.00;52658.72;5102764;28;20016;-69
2022/09/09 04:42:12;;;;;;;3.90;1.20;;;;;;;-140.72;100.00;52642.47;5094168;27;20083;-70
2022/09/09 04:44:38;;;;;;;5.05;1.48;;;;;;;-140.72;100.00;52644.50;5097681;27;20015;-71
2022/09/09 04:47:03;;;;;;;2.30;1.10;;;;;;;-140.72;100.00;52610.00;5101369;27;20493;-72
2022/09/09 04:49:30;;;;;;;2.80;1.30;;;;;;;-140.72;100.00;52650.59;5103229;27;20241;-71
2022/09/09 04:51:56;;;;;;;6.90;1.52;;;;;;;-140.72;100.00;52638.41;5093005;27;20031;-72
2022/09/09 04:54:21;;;;;;;2.97;1.17;;;;;;;-140.72;100.00;52670.88;5096875;28;20022;-71
2022/09/09 04:56:46;;;;;;;5.50;1.45;;;;;;;-140.72;100.00;52646.53;5102734;27;20019;-71
2022/09/09 04:59:12;;;;;;;3.20;1.90;;;;;;;-140.72;100.00;52634.38;5101400;28;20028;-70
2022/09/09 05:01:38;;;;;;;1.95;1.02;;;;;;;-140.72;100.00;52632.34;5105234;27;20125;-70
2022/09/09 05:04:03;;;;;;;1.55;1.20;;;;;;;-140.72;100.00;52626.25;5101323;27;20016;-71
2022/09/09 05:06:31;;;;;;;2.22;1.17;;;;;;;-140.72;100.00;52614.06;5100489;27;20020;-71
2022/09/09 05:08:57;;;;;;;3.08;1.27;;;;;;;-140.72;100.00;52628.28;5102213;27;20070;-71
2022/09/09 05:11:26;;;;;;;3.50;1.10;;;;;;;-140.72;100.00;52642.47;5098831;27;20095;-71
2022/09/09 05:13:52;;;;;;;2.05;1.15;;;;;;;-140.72;100.00;52610.00;5099603;28;20066;-71
2022/09/09 05:16:19;;;;;;;4.57;1.45;;;;;;;-140.72;100.00;52646.53;5096036;28;20327;-72
2022/09/09 05:18:45;;;;;;;7.63;1.55;;;;;;;-140.72;100.00;52642.47;5099034;28;20474;-70
2022/09/09 05:21:13;;;;;;;2.95;1.80;;;;;;;-140.72;100.00;52652.63;5092588;28;20042;-67
2022/09/09 05:23:38;;;;;;;3.22;1.25;;;;;;;-140.72;100.00;52642.47;5099498;28;20097;-68
2022/09/09 05:26:05;;;;;;;3.55;1.52;;;;;;;-140.72;100.00;52640.44;5099214;27;20402;-68
2022/09/09 05:28:31;;;;;;;3.65;1.60;;;;;;;-140.72;100.00;52642.47;5096321;28;20080;-68
2022/09/09 05:30:57;;;;;;;3.65;1.23;;;;;;;-140.72;100.00;52646.53;5096398;27;20023;-68
2022/09/09 05:33:23;;;;;;;4.05;1.55;;;;;;;-140.72;100.00;52666.84;5097560;28;20389;-68
2022/09/09 05:35:56;;;;;;;2.30;1.38;;;;;;;-140.72;100.00;52628.28;5103786;28;20106;-68
2022/09/09 05:38:24;;;;;;;2.38;1.63;;;;;;;-140.72;100.00;52666.84;5098169;28;20023;-68
2022/09/09 05:40:49;;;;;;;2.15;0.98;;;;;;;-140.72;100.00;52634.38;5103046;27;20023;-66
2022/09/09 05:43:15;;;;;;;6.38;2.13;;;;;;;-140.72;100.00;52626.25;5101287;28;20027;-67
2022/09/09 05:45:40;;;;;;;1.52;1.02;;;;;;;-140.72;100.00;52630.31;5098859;28;20027;-67
2022/09/09 05:48:05;;;;;;;2.05;1.13;;;;;;;-140.72;100.00;52601.91;5098953;28;20122;-67
2022/09/09 05:50:31;;;;;;;2.65;1.20;;;;;;;-140.72;100.00;52616.09;5097568;28;20085;-68
2022/09/09 05:52:56;;;;;;;4.57;1.27;;;;;;;-140.72;100.00;52597.84;5101451;27;20019;-68
2022/09/09 05:55:22;;;;;;;1.77;0.98;;;;;;;-140.72;100.00;52618.13;5104626;28;20098;-68
2022/09/09 05:57:49;;;;;;;4.47;1.58;;;;;;;-140.72;100.00;52601.91;5095173;28;20020;-68
2022/09/09 06:00:16;;;;;;;4.10;0.93;;;;;;;-140.72;100.00;52605.94;5101510;28;20411;-69
2022/09/09 06:02:41;;;;;;;1.75;0.80;;;;;;;-140.72;100.00;52599.88;5093483;28;20028;-68
2022/09/09 06:05:08;;;;;;;3.83;1.27;;;;;;;-140.72;100.00;52622.19;5105868;27;20081;-67
2022/09/09 06:07:33;;;;;;;3.47;1.25;;;;;;;-140.72;100.00;52607.97;5101606;28;20023;-68
2022/09/09 06:09:59;;;;;;;4.47;1.55;;;;;;;-140.72;100.00;52660.75;5104540;28;20450;-68
2022/09/09 06:12:25;;;;;;;3.53;1.08;;;;;;;-140.72;100.00;52573.50;5099112;28;20047;-67
2022/09/09 06:14:51;;;;;;;1.33;1.10;;;;;;;-140.72;100.00;52603.94;5098065;28;20019;-68
2022/09/09 06:17:17;;;;;;;3.83;1.50;;;;;;;-140.72;100.00;52616.09;5102448;28;20115;-68
2022/09/09 06:19:42;;;;;;;2.88;0.80;;;;;;;-140.72;100.00;52628.28;5097160;28;20026;-68
2022/09/09 06:22:12;;;;;;;2.90;0.98;;;;;;;-140.72;100.00;52642.47;5101779;28;20360;-69
2022/09/09 06:24:37;;;;;;;2.08;1.08;;;;;;;-140.72;100.00;52614.06;5100416;28;20410;-69
2022/09/09 06:27:03;;;;;;;0.90;0.65;;;;;;;-140.72;100.00;52583.63;5100062;28;20027;-68
2022/09/09 06:29:28;;;;;;;2.55;1.20;;;;;;;-140.72;100.00;52575.50;5096597;28;20341;-68
2022/09/09 06:31:54;;;;;;;6.15;1.65;;;;;;;-140.72;100.00;52589.72;5098581;28;20027;-68
2022/09/09 06:34:19;;;;;;;7.13;1.23;;;;;;;-140.72;100.00;52597.84;5101870;28;20046;-68
2022/09/09 06:36:45;;;;;;;1.75;0.98;;;;;;;-140.72;100.00;52599.88;5102303;28;20031;-69
2022/09/09 06:39:11;;;;;;;4.35;1.23;;;;;;;-140.72;100.00;52603.94;5099183;28;20058;-68
2022/09/09 06:41:38;;;;;;;1.73;0.95;;;;;;;-140.72;100.00;52599.88;5096995;28;20417;-68
2022/09/09 06:44:03;;;;;;;6.40;1.33;;;;;;;-140.72;100.00;52618.13;5094867;28;20141;-68
2022/09/09 06:46:32;;;;;;;6.75;1.45;;;;;;;-140.72;100.00;52610.00;5100854;28;20059;-68
2022/09/09 06:48:59;;;;;;;2.30;1.20;;;;;;;-140.72;100.00;52581.59;5099777;27;20067;-69
2022/09/09 06:51:36;;;;;;;2.30;1.25;;;;;;;-140.72;100.00;52618.13;5093844;28;20032;-68
2022/09/09 06:54:03;;;;;;;3.33;1.17;;;;;;;-140.72;100.00;52581.59;5099415;28;20038;-68
2022/09/09 06:56:37;;;;;;;2.05;0.88;;;;;;;-140.72;100.00;52624.22;5100094;28;20019;-68
2022/09/09 06:59:04;;;;;;;5.05;1.63;;;;;;;-140.72;100.00;52622.19;5100444;28;20027;-68
2022/09/09 07:01:33;;;;;;;3.63;2.17;;;;;;;-140.72;100.00;52571.47;5090240;28;20026;-68
2022/09/09 07:03:59;;;;;;;4.38;1.50;;;;;;;-140.72;100.00;52573.50;5061379;28;20074;-69
2022/09/09 07:06:28;;;;;;;3.60;1.40;;;;;;;-140.72;100.00;52585.66;5093588;28;20032;-69
2022/09/09 07:08:55;;;;;;;3.10;1.30;;;;;;;-140.72;100.00;52593.78;5094717;28;20063;-68
2022/09/09 07:11:23;;;;;;;2.42;1.50;;;;;;;-140.72;100.00;52524.78;5095654;28;20027;-68
2022/09/09 07:13:49;;;;;;;3.05;1.73;;;;;;;-140.72;100.00;52593.78;5096962;28;20020;-68
2022/09/09 07:16:20;;;;;;;3.90;1.38;;;;;;;-140.72;100.00;52591.75;5096074;28;20424;-67
2022/09/09 07:18:45;;;;;;;4.53;1.42;;;;;;;-140.72;100.00;52565.38;5098217;28;20027;-68
2022/09/09 07:21:13;;;;;;;2.17;1.13;;;;;;;-140.72;100.00;52593.78;5093714;28;20388;-68
2022/09/09 07:23:39;;;;;;;6.32;1.58;;;;;;;-140.72;100.00;52573.50;5102610;28;20579;-69
2022/09/09 07:26:13;;;;;;;4.05;1.20;;;;;;;-140.72;100.00;52618.13;5100276;28;20106;-68
2022/09/09 07:28:41;;;;;;;3.60;1.98;;;;;;;-140.72;100.00;52593.78;5096766;28;20038;-69
2022/09/09 07:31:13;;;;;;;3.83;1.75;;;;;;;-140.72;100.00;52601.91;5097854;28;20073;-68
2022/09/09 07:33:40;;;;;;;4.38;1.90;;;;;;;-140.72;100.00;52589.72;5103028;27;20019;-69
2022/09/09 07:36:13;;;;;;;3.85;1.48;;;;;;;-140.72;100.00;52605.94;5101824;28;20031;-67
2022/09/09 07:38:45;;;;;;;3.45;1.90;;;;;;;-140.72;100.00;52589.72;5098462;28;20016;-68
2022/09/09 07:41:14;;;;;;;7.35;2.10;;;;;;;-140.72;100.00;52593.78;5103430;28;20024;-70
2022/09/09 07:43:44;;;;;;;6.43;3.08;;;;;;;-140.72;100.00;52610.00;5096064;28;20034;-69
2022/09/09 07:46:11;;;;;;;3.97;1.80;;;;;;;-140.72;100.00;52618.13;5097598;28;20020;-67
2022/09/09 07:48:38;;;;;;;3.08;2.22;;;;;;;-140.72;100.00;52591.75;5101142;27;20024;-67
2022/09/09 07:51:12;;;;;;;3.53;1.85;;;;;;;-140.72;100.00;52575.50;5100226;28;20419;-68
2022/09/09 07:53:38;;;;;;;10.85;1.92;;;;;;;-140.72;100.00;52583.63;5095432;27;20028;-68
2022/09/09 07:56:07;;;;;;;4.05;2.60;;;;;;;-140.72;100.00;52614.06;5099144;28;20362;-68
2022/09/09 07:58:32;;;;;;;3.28;2.35;;;;;;;-140.72;100.00;52575.50;5093635;28;20036;-68
2022/09/09 08:00:58;;;;;;;3.20;1.70;;;;;;;-140.72;100.00;52601.91;5098229;28;20035;-68
2022/09/09 08:03:23;;;;;;;4.05;2.03;;;;;;;-140.72;100.00;52616.09;5095810;28;20036;-69
2022/09/09 08:05:49;;;;;;;6.20;1.98;;;;;;;-140.72;100.00;52593.78;5102062;28;20367;-69
2022/09/09 08:08:16;;;;;;;5.20;2.33;;;;;;;-140.72;100.00;52575.50;5095923;28;20028;-69
2022/09/09 08:10:41;;;;;;;6.53;2.75;;;;;;;-140.72;100.00;52553.19;5104047;27;20011;-68
2022/09/09 08:13:08;;;;;;;3.25;1.83;;;;;;;-140.72;100.00;52569.44;5105123;28;20457;-69
2022/09/09 08:15:34;;;;;;;2.97;2.08;;;;;;;-140.72;100.00;52593.78;5098386;28;20031;-68
2022/09/09 08:18:05;;;;;;;2.88;2.00;;;;;;;-140.72;100.00;52593.78;5082092;28;20212;-69
2022/09/09 08:20:30;;;;;;;4.97;2.38;;;;;;;-140.72;100.00;52585.66;5102246;28;20126;-68
2022/09/09 08:22:56;;;;;;;3.00;1.67;;;;;;;-140.72;100.00;52587.69;5101433;28;20135;-68
2022/09/09 08:25:21;;;;;;;5.32;2.05;;;;;;;-140.72;100.00;52589.72;5100390;28;20082;-68
2022/09/09 08:27:47;;;;;;;6.03;1.92;;;;;;;-140.72;100.00;52638.41;5099770;28;20019;-67
2022/09/09 08:30:15;;;;;;;2.88;1.65;;;;;;;-140.72;100.00;52563.34;5095218;27;20478;-68
2022/09/09 08:32:41;;;;;;;7.65;1.98;;;;;;;-140.72;100.00;52565.38;5092809;28;20055;-67
2022/09/09 08:35:07;;;;;;;3.53;1.88;;;;;;;-140.72;100.00;52561.31;5097817;27;20416;-68
2022/09/09 08:37:32;;;;;;;5.38;1.80;;;;;;;-140.72;100.00;52591.75;5099834;27;20023;-67
2022/09/09 08:39:58;;;;;;;7.07;2.15;;;;;;;-140.72;100.00;52585.66;5099070;28;20072;-67
2022/09/09 08:42:37;;;;;;;8.10;2.30;;;;;;;-140.72;100.00;52567.41;5102226;27;20064;-67
2022/09/09 08:45:12;;;;;;;2.33;1.70;;;;;;;-140.72;100.00;52585.66;5099658;28;20042;-67
2022/09/09 08:47:57;;;;;;;6.40;2.08;;;;;;;-140.72;100.00;52597.84;5096954;27;20393;-68
2022/09/09 08:50:29;;;;;;;2.88;1.35;;;;;;;-140.72;100.00;52555.22;5108054;27;20729;-67
2022/09/09 08:53:16;;;;;;;4.90;1.88;;;;;;;-140.72;100.00;52626.25;5101736;27;20057;-69
2022/09/09 08:55:48;;;;;;;3.03;1.77;;;;;;;-140.72;100.00;52577.53;5108783;27;20026;-67
2022/09/09 08:58:30;;;;;;;3.35;2.17;;;;;;;-140.72;100.00;52597.84;5096136;28;20024;-67
2022/09/09 09:01:16;;;;;;;3.92;1.92;;;;;;;-140.72;100.00;52634.38;5093720;28;20605;-67
2022/09/09 09:04:06;;;;;;;7.03;1.80;;;;;;;-140.72;100.00;52603.94;5098888;28;20016;-67
2022/09/09 09:06:38;;;;;;;5.45;1.63;;;;;;;-140.72;100.00;52577.53;5094241;28;20032;-67
2022/09/09 09:09:30;;;;;;;5.55;2.50;;;;;;;-140.72;100.00;52610.00;5102872;28;20031;-68
2022/09/09 09:12:00;;;;;;;5.53;2.55;;;;;;;-140.72;100.00;52597.84;5100392;27;20874;-68
2022/09/09 09:14:28;;;;;;;5.07;2.00;;;;;;;-140.72;100.00;52648.56;5099595;28;20485;-68
2022/09/09 09:16:58;;;;;;;3.70;1.85;;;;;;;-140.72;100.00;52634.38;5092868;28;20038;-68
2022/09/09 09:19:26;;;;;;;3.20;2.00;;;;;;;-140.72;100.00;52599.88;5102211;27;20483;-68
2022/09/09 09:22:39;;;;;;;5.35;2.00;;;;;;;-140.72;100.00;52557.25;5103223;27;20313;-67
2022/09/09 09:25:17;;;;;;;7.35;2.33;;;;;;;-140.72;100.00;52605.94;4998015;28;20294;-67
2022/09/09 09:28:00;;;;;;;4.85;2.25;;;;;;;-140.72;100.00;52630.31;4998997;28;20399;-67
2022/09/09 09:30:34;;;;;;;5.55;2.83;;;;;;;-140.72;100.00;52605.94;5065852;28;20058;-67
2022/09/09 09:33:17;;;;;;;5.53;2.95;;;;;;;-140.72;100.00;52660.75;5099471;28;20027;-67
2022/09/09 09:35:43;;;;;;;4.75;2.13;;;;;;;-140.72;100.00;52620.16;5104854;27;20369;-67
2022/09/09 09:38:21;;;;;;;3.65;2.30;;;;;;;-140.72;100.00;52638.41;5091338;28;20020;-67
2022/09/09 09:41:00;;;;;;;5.40;2.65;;;;;;;-140.72;100.00;52610.00;5096343;28;20111;-67
2022/09/09 09:43:34;;;;;;;5.57;2.10;;;;;;;-140.72;100.00;52603.94;5096865;28;20036;-68
2022/09/09 09:46:03;;;;;;;4.30;2.00;;;;;;;-140.72;100.00;52599.88;5095764;28;20024;-68
2022/09/09 09:48:28;;;;;;;4.78;2.03;;;;;;;-140.72;100.00;52569.44;5093943;27;20070;-67
2022/09/09 09:51:02;;;;;;;6.60;2.53;;;;;;;-140.72;100.00;52597.84;5096930;28;20504;-67
2022/09/09 09:53:33;;;;;;;3.78;1.77;;;;;;;-140.72;100.00;52569.44;5100702;27;20032;-68
2022/09/09 09:56:02;;;;;;;4.03;1.48;;;;;;;-140.72;100.00;52528.84;5103164;28;20405;-67
2022/09/09 09:58:33;;;;;;;1.65;1.30;;;;;;;-140.72;100.00;52536.97;5099834;28;20043;-67
2022/09/09 10:01:00;;;;;;;2.75;1.60;;;;;;;-140.72;100.00;52543.03;5099252;28;20020;-68
2022/09/09 10:03:30;;;;;;;0.98;0.82;;;;;;;-140.72;100.00;52543.03;5095068;28;20043;-68
2022/09/09 10:05:56;;;;;;;3.28;1.52;;;;;;;-140.72;100.00;52573.50;5100190;27;20073;-67
2022/09/09 10:08:23;;;;;;;1.95;0.80;;;;;;;-140.72;100.00;52516.66;5096409;28;20015;-67
2022/09/09 10:11:05;;;;;;;3.28;1.73;;;;;;;-140.72;100.00;52541.03;5088747;28;20020;-67
2022/09/09 10:14:00;;;;;;;6.05;1.50;;;;;;;-140.72;100.00;52543.03;5096626;28;20074;-68
2022/09/09 10:16:52;;;;;;;3.67;1.27;;;;;;;-140.72;100.00;52567.41;5101714;28;20035;-66
2022/09/09 10:19:36;;;;;;;5.20;1.35;;;;;;;-140.72;100.00;52571.47;5092967;28;20465;-67
2022/09/09 10:22:07;;;;;;;2.70;1.52;;;;;;;-140.72;100.00;52545.06;5095285;28;20458;-67
2022/09/09 10:24:44;;;;;;;7.78;1.90;;;;;;;-140.72;100.00;52557.25;5100442;28;20453;-67
2022/09/09 10:27:31;;;;;;;4.43;1.38;;;;;;;-140.72;100.00;52573.50;5098114;28;20050;-68
2022/09/09 10:30:12;;;;;;;3.05;1.30;;;;;;;-140.72;100.00;52555.22;5094862;28;20216;-68
2022/09/09 10:32:40;;;;;;;2.33;1.70;;;;;;;-140.72;100.00;52597.84;5097137;28;20023;-67
2022/09/09 10:35:16;;;;;;;1.85;1.58;;;;;;;-140.72;100.00;52575.50;5105831;28;20477;-67
2022/09/09 10:37:48;;;;;;;2.30;1.70;;;;;;;-140.72;100.00;52575.50;5093267;28;20563;-67
2022/09/09 10:40:34;;;;;;;2.10;1.17;;;;;;;-140.72;100.00;52559.28;5092539;27;20028;-68
2022/09/09 10:43:30;;;;;;;2.65;1.33;;;;;;;-140.72;100.00;52543.03;5099728;28;20020;-67
2022/09/09 10:46:04;;;;;;;2.22;1.48;;;;;;;-140.72;100.00;52543.03;5096398;28;20092;-67
2022/09/09 10:48:47;;;;;;;5.13;1.23;;;;;;;-140.72;100.00;52534.94;5099905;28;20050;-67
2022/09/09 10:52:05;;;;;;;2.58;1.40;;;;;;;-140.72;100.00;52575.50;5094450;28;20027;-67
2022/09/09 10:54:53;;;;;;;1.92;1.50;;;;;;;-140.72;100.00;52553.19;5011535;28;20025;-67
2022/09/09 10:57:43;;;;;;;2.63;1.23;;;;;;;-140.72;100.00;52573.50;5004816;28;20339;-68
2022/09/09 11:00:20;;;;;;;2.78;1.60;;;;;;;-140.72;100.00;52614.06;5095498;28;20032;-67
2022/09/09 11:02:51;;;;;;;6.00;1.80;;;;;;;-140.72;100.00;52589.72;5093372;28;20020;-66
2022/09/09 11:05:43;;;;;;;2.40;1.30;;;;;;;-140.72;100.00;52581.59;5097198;28;20114;-67
2022/09/09 11:08:17;;;;;;;5.57;2.10;;;;;;;-140.72;100.00;52569.44;5091561;28;20036;-65
2022/09/09 11:11:04;;;;;;;2.90;2.00;;;;;;;-140.72;100.00;52559.28;5104994;28;20035;-67
2022/09/09 11:13:43;;;;;;;2.63;1.60;;;;;;;-140.72;100.00;52516.66;5099809;28;20027;-66
2022/09/09 11:16:26;;;;;;;2.30;1.38;;;;;;;-140.72;100.00;52549.13;5098319;28;20035;-68
2022/09/09 11:19:02;;;;;;;4.53;1.58;;;;;;;-140.72;100.00;52553.19;5108221;27;20028;-67
2022/09/09 11:21:43;;;;;;;3.47;1.48;;;;;;;-140.72;100.00;52553.19;5102856;27;20031;-67
2022/09/09 11:24:33;;;;;;;3.15;1.35;;;;;;;-140.72;100.00;52504.50;5098154;27;20082;-66
2022/09/09 11:27:41;;;;;;;4.93;1.00;;;;;;;-140.72;100.00;52524.78;5094062;28;20110;-67
2022/09/09 11:30:26;;;;;;;1.92;1.10;;;;;;;-140.72;100.00;52502.47;5069726;28;20085;-67